createdAt,value
2019-04-25T00:01:07.675Z,13.93
2019-04-25T00:03:38.386Z,14.43
2019-04-25T00:06:07.810Z,17.17
2019-04-25T00:08:37.359Z,15.43
2019-04-25T00:11:07.603Z,13.20
2019-04-25T00:13:37.913Z,14.13
2019-04-25T00:16:08.262Z,14.10
2019-04-25T00:18:38.535Z,12.67
2019-04-25T00:21:17.867Z,11.47
2019-04-25T00:23:51.574Z,14.53
2019-04-25T00:26:32.369Z,13.40
2019-04-25T00:29:01.967Z,14.87
2019-04-25T00:31:32.567Z,10.30
2019-04-25T00:34:02.201Z,16.60
2019-04-25T00:36:32.162Z,15.40
2019-04-25T00:39:02.028Z,15.37
2019-04-25T00:41:32.031Z,15.73
2019-04-25T00:44:02.506Z,15.03
2019-04-25T00:46:32.271Z,18.23
2019-04-25T00:49:02.526Z,20.63
2019-04-25T00:51:31.911Z,16.93
2019-04-25T00:54:02.426Z,13.57
2019-04-25T00:56:32.257Z,15.23
2019-04-25T00:59:31.932Z,16.27
2019-04-25T01:02:32.084Z,18.83
2019-04-25T01:05:01.861Z,15.10
2019-04-25T01:07:32.378Z,24.33
2019-04-25T01:10:02.640Z,17.67
2019-04-25T01:12:32.010Z,16.30
2019-04-25T01:15:02.592Z,19.00
2019-04-25T01:17:31.883Z,17.73
2019-04-25T01:20:01.193Z,19.00
2019-04-25T01:22:30.427Z,16.83
2019-04-25T01:24:59.681Z,17.50
2019-04-25T01:27:28.937Z,17.60
2019-04-25T01:29:58.757Z,21.73
2019-04-25T01:32:35.402Z,17.37
2019-04-25T01:35:24.767Z,17.23
2019-04-25T01:38:13.875Z,18.90
2019-04-25T01:40:56.144Z,19.90
2019-04-25T01:43:33.174Z,16.27
2019-04-25T01:46:03.481Z,17.20
2019-04-25T01:48:33.339Z,21.50
2019-04-25T01:51:04.117Z,15.73
2019-04-25T01:53:33.918Z,20.33
2019-04-25T01:56:07.574Z,17.43
2019-04-25T01:58:35.353Z,14.10
2019-04-25T02:01:04.886Z,14.10
2019-04-25T02:03:35.617Z,18.80
2019-04-25T02:06:05.137Z,16.37
2019-04-25T02:08:34.452Z,18.87
2019-04-25T02:11:14.237Z,17.20
2019-04-25T02:13:43.842Z,19.80
2019-04-25T02:16:14.219Z,18.13
2019-04-25T02:18:43.679Z,16.40
2019-04-25T02:21:13.729Z,16.10
2019-04-25T02:23:44.219Z,16.63
2019-04-25T02:26:16.817Z,18.47
2019-04-25T02:28:45.029Z,15.80
2019-04-25T02:31:17.577Z,19.30
2019-04-25T02:33:45.272Z,16.83
2019-04-25T02:36:15.233Z,13.57
2019-04-25T02:38:44.772Z,17.27
2019-04-25T02:41:14.827Z,19.10
2019-04-25T02:43:45.236Z,17.60
2019-04-25T02:46:34.830Z,16.57
2019-04-25T02:49:35.359Z,14.97
2019-04-25T02:52:08.459Z,14.57
2019-04-25T02:54:37.444Z,15.60
2019-04-25T02:57:08.271Z,18.83
2019-04-25T02:59:37.623Z,13.20
2019-04-25T03:02:09.104Z,15.13
2019-04-25T03:04:38.435Z,17.87
2019-04-25T03:07:11.103Z,17.47
2019-04-25T03:09:38.653Z,14.00
2019-04-25T03:12:09.331Z,17.53
2019-04-25T03:14:38.784Z,15.33
2019-04-25T03:17:09.809Z,14.83
2019-04-25T03:20:00.028Z,14.43
2019-04-25T03:22:30.560Z,15.73
2019-04-25T03:25:02.226Z,18.40
2019-04-25T03:27:31.468Z,20.80
2019-04-25T03:30:01.931Z,16.40
2019-04-25T03:32:31.416Z,14.30
2019-04-25T03:35:01.301Z,17.07
2019-04-25T03:37:30.773Z,16.23
2019-04-25T03:40:00.007Z,16.77
2019-04-25T03:42:29.333Z,15.47
2019-04-25T03:44:58.592Z,16.17
2019-04-25T03:47:27.886Z,16.93
2019-04-25T03:49:57.142Z,13.77
2019-04-25T03:52:26.364Z,18.83
2019-04-25T03:54:56.847Z,17.93
2019-04-25T03:57:26.127Z,17.03
2019-04-25T03:59:55.389Z,21.20
2019-04-25T04:02:24.754Z,16.60
2019-04-25T04:04:54.000Z,16.87
2019-04-25T04:07:23.759Z,17.33
2019-04-25T04:09:54.885Z,15.37
2019-04-25T04:12:24.394Z,16.07
2019-04-25T04:14:53.863Z,19.63
2019-04-25T04:17:51.537Z,16.67
2019-04-25T04:20:26.806Z,16.43
2019-04-25T04:23:03.219Z,15.07
2019-04-25T04:25:33.655Z,13.80
2019-04-25T04:28:03.784Z,15.47
2019-04-25T04:30:34.001Z,15.13
2019-04-25T04:33:03.692Z,15.00
2019-04-25T04:35:33.543Z,19.97
2019-04-25T04:38:04.272Z,21.73
2019-04-25T04:40:35.914Z,19.10
2019-04-25T04:43:04.683Z,16.23
2019-04-25T04:45:34.490Z,17.60
2019-04-25T04:48:03.924Z,15.33
2019-04-25T04:50:33.622Z,14.97
2019-04-25T04:53:03.890Z,15.53
2019-04-25T04:55:34.362Z,15.17
2019-04-25T04:58:04.394Z,14.33
2019-04-25T05:00:33.905Z,15.73
2019-04-25T05:03:13.155Z,13.17
2019-04-25T05:05:58.471Z,21.07
2019-04-25T05:08:30.847Z,18.03
2019-04-25T05:11:00.095Z,14.00
2019-04-25T05:13:29.741Z,15.13
2019-04-25T05:15:59.115Z,12.57
2019-04-25T05:18:37.006Z,15.67
2019-04-25T05:20:59.315Z,15.10
2019-04-25T05:23:29.089Z,18.27
2019-04-25T05:25:58.379Z,15.53
2019-04-25T05:28:27.629Z,19.60
2019-04-25T05:31:16.904Z,13.60
2019-04-25T05:33:46.846Z,17.60
2019-04-25T05:36:17.287Z,14.93
2019-04-25T05:38:47.129Z,18.67
2019-04-25T05:41:33.754Z,12.43
2019-04-25T05:44:04.494Z,17.97
2019-04-25T05:46:34.239Z,16.30
2019-04-25T05:49:03.520Z,19.00
2019-04-25T05:51:34.380Z,18.80
2019-04-25T05:54:04.201Z,17.00
2019-04-25T05:56:33.890Z,13.47
2019-04-25T05:59:03.369Z,15.90
2019-04-25T06:01:35.848Z,20.83
2019-04-25T06:04:05.545Z,15.77
2019-04-25T06:06:36.615Z,16.50
2019-04-25T06:09:31.521Z,18.53
2019-04-25T06:12:13.444Z,20.90
2019-04-25T06:14:43.407Z,15.80
2019-04-25T06:17:16.496Z,17.80
2019-04-25T06:19:49.826Z,14.57
2019-04-25T06:22:25.557Z,17.13
2019-04-25T06:24:59.863Z,15.93
2019-04-25T06:27:35.486Z,12.70
2019-04-25T06:30:31.570Z,16.83
2019-04-25T06:33:01.107Z,18.77
2019-04-25T06:35:30.471Z,19.13
2019-04-25T06:37:59.769Z,14.73
2019-04-25T06:40:30.687Z,17.70
2019-04-25T06:43:00.099Z,18.57
2019-04-25T06:45:50.010Z,22.97
2019-04-25T06:48:25.000Z,17.07
2019-04-25T06:50:54.682Z,17.00
2019-04-25T06:53:25.497Z,18.83
2019-04-25T06:55:54.848Z,19.70
2019-04-25T06:58:26.051Z,18.00
2019-04-25T07:00:58.695Z,14.07
2019-04-25T07:03:27.008Z,14.43
2019-04-25T07:05:57.014Z,14.77
2019-04-25T07:08:26.909Z,19.57
2019-04-25T07:10:57.102Z,17.07
2019-04-25T07:13:27.043Z,18.07
2019-04-25T07:15:56.553Z,14.87
2019-04-25T07:18:31.203Z,16.03
2019-04-25T07:20:56.820Z,12.43
2019-04-25T07:23:26.111Z,17.97
2019-04-25T07:26:01.710Z,19.33
2019-04-25T07:28:45.574Z,18.93
2019-04-25T07:31:49.618Z,17.87
2019-04-25T07:34:25.054Z,19.70
2019-04-25T07:36:54.934Z,18.83
2019-04-25T07:39:25.520Z,14.23
2019-04-25T07:41:54.988Z,14.80
2019-04-25T07:44:35.235Z,14.83
2019-04-25T07:46:55.229Z,14.17
2019-04-25T07:49:24.464Z,18.23
2019-04-25T07:51:54.380Z,15.27
2019-04-25T07:54:23.991Z,15.10
2019-04-25T07:56:55.062Z,16.62
2019-04-25T07:59:24.523Z,13.03
2019-04-25T08:01:54.260Z,15.20
2019-04-25T08:04:23.931Z,18.63
2019-04-25T08:06:54.283Z,20.27
2019-04-25T08:09:24.321Z,13.47
2019-04-25T08:11:54.929Z,21.93
2019-04-25T08:14:45.975Z,16.87
2019-04-25T08:17:16.658Z,17.95
2019-04-25T08:19:46.421Z,22.52
2019-04-25T08:22:15.848Z,19.80
2019-04-25T08:24:45.400Z,15.83
2019-04-25T08:27:14.726Z,17.75
2019-04-25T08:29:45.519Z,15.40
2019-04-25T08:32:14.975Z,11.88
2019-04-25T08:34:44.755Z,13.90
2019-04-25T08:37:18.912Z,22.35
2019-04-25T08:39:45.662Z,22.35
2019-04-25T08:42:14.903Z,15.47
2019-04-25T08:44:44.957Z,14.30
2019-04-25T08:47:14.601Z,16.75
2019-04-25T08:50:04.262Z,14.25
2019-04-25T08:52:35.130Z,15.80
2019-04-25T08:55:10.200Z,17.95
2019-04-25T08:57:57.856Z,17.32
2019-04-25T09:00:39.093Z,15.15
2019-04-25T09:03:11.798Z,17.40
2019-04-25T09:05:45.912Z,18.40
2019-04-25T09:08:14.558Z,19.23
2019-04-25T09:10:44.897Z,21.93
2019-04-25T09:13:14.338Z,20.43
2019-04-25T09:15:45.506Z,18.90
2019-04-25T09:18:14.708Z,16.55
2019-04-25T09:20:46.700Z,15.90
2019-04-25T09:23:15.092Z,15.35
2019-04-25T09:25:45.806Z,18.23
2019-04-25T09:28:15.537Z,18.80
2019-04-25T09:30:45.853Z,15.32
2019-04-25T09:33:15.375Z,17.85
2019-04-25T09:35:45.897Z,16.23
2019-04-25T09:38:15.397Z,14.35
2019-04-25T09:40:45.692Z,16.02
2019-04-25T09:43:15.639Z,18.70
2019-04-25T09:46:06.094Z,20.40
2019-04-25T09:48:57.311Z,17.30
2019-04-25T09:51:53.337Z,22.32
2019-04-25T09:54:45.185Z,17.25
2019-04-25T09:57:33.708Z,23.27
2019-04-25T10:00:03.702Z,17.80
2019-04-25T10:02:33.055Z,17.57
2019-04-25T10:05:03.946Z,17.95
2019-04-25T10:07:33.333Z,22.62
2019-04-25T10:10:05.053Z,19.00
2019-04-25T10:12:34.381Z,18.70
2019-04-25T10:15:25.018Z,20.43
2019-04-25T10:17:54.337Z,19.75
2019-04-25T10:20:23.598Z,21.85
2019-04-25T10:22:53.984Z,20.05
2019-04-25T10:25:23.467Z,15.93
2019-04-25T10:27:53.818Z,18.95
2019-04-25T10:30:24.330Z,19.50
2019-04-25T10:32:54.741Z,14.63
2019-04-25T10:35:24.243Z,17.92
2019-04-25T10:37:54.915Z,16.95
2019-04-25T10:40:25.080Z,18.23
2019-04-25T10:42:54.697Z,20.88
2019-04-25T10:45:26.006Z,14.93
2019-04-25T10:47:56.419Z,17.40
2019-04-25T10:50:26.045Z,19.32
2019-04-25T10:52:55.317Z,24.05
2019-04-25T10:55:24.733Z,16.35
2019-04-25T10:57:55.099Z,20.55
2019-04-25T11:00:34.929Z,20.88
2019-04-25T11:03:19.108Z,19.62
2019-04-25T11:05:48.439Z,18.52
2019-04-25T11:08:17.775Z,24.27
2019-04-25T11:10:49.020Z,16.65
2019-04-25T11:13:18.145Z,16.50
2019-04-25T11:15:47.552Z,15.38
2019-04-25T11:18:16.787Z,17.23
2019-04-25T11:20:46.123Z,14.93
2019-04-25T11:23:15.976Z,14.35
2019-04-25T11:25:46.144Z,15.63
2019-04-25T11:28:15.519Z,16.52
2019-04-25T11:30:47.347Z,17.55
2019-04-25T11:33:17.415Z,22.52
2019-04-25T11:35:47.837Z,18.00
2019-04-25T11:38:24.182Z,19.23
2019-04-25T11:40:59.574Z,14.25
2019-04-25T11:43:28.906Z,15.48
2019-04-25T11:45:58.232Z,20.77
2019-04-25T11:48:27.676Z,18.70
2019-04-25T11:50:57.099Z,12.63
2019-04-25T11:53:26.578Z,15.10
2019-04-25T11:55:57.278Z,20.40
2019-04-25T11:58:26.700Z,16.70
2019-04-25T12:01:15.250Z,16.60
2019-04-25T12:03:46.597Z,15.23
2019-04-25T12:06:16.122Z,17.05
2019-04-25T12:08:46.790Z,18.52
2019-04-25T12:11:16.846Z,14.70
2019-04-25T12:13:47.173Z,16.15
2019-04-25T12:16:17.135Z,28.67
2019-04-25T12:18:48.066Z,14.40
2019-04-25T12:21:17.668Z,14.65
2019-04-25T12:23:47.853Z,15.40
2019-04-25T12:26:17.861Z,15.75
2019-04-25T12:28:47.284Z,14.95
2019-04-25T12:31:16.588Z,13.55
2019-04-25T12:33:47.633Z,16.12
2019-04-25T12:36:17.505Z,13.70
2019-04-25T12:38:46.775Z,16.87
2019-04-25T12:41:16.111Z,13.43
2019-04-25T12:43:54.263Z,12.58
2019-04-25T12:46:34.794Z,11.93
2019-04-25T12:49:05.212Z,13.03
2019-04-25T12:51:34.544Z,13.55
2019-04-25T12:54:03.997Z,11.80
2019-04-25T12:56:34.101Z,12.82
2019-04-25T12:59:04.588Z,14.68
2019-04-25T13:01:34.107Z,14.73
2019-04-25T13:04:04.190Z,16.62
2019-04-25T13:06:34.638Z,15.13
2019-04-25T13:09:05.519Z,14.25
2019-04-25T13:11:34.917Z,14.65
2019-04-25T13:14:04.280Z,14.28
2019-04-25T13:16:34.230Z,15.50
2019-04-25T13:19:12.715Z,15.78
2019-04-25T13:21:34.677Z,18.48
2019-04-25T13:24:03.891Z,13.28
2019-04-25T13:26:37.993Z,15.25
2019-04-25T13:29:26.282Z,12.63
2019-04-25T13:32:08.256Z,14.03
2019-04-25T13:34:40.895Z,15.00
2019-04-25T13:37:10.631Z,14.23
2019-04-25T13:39:39.895Z,13.93
2019-04-25T13:42:09.273Z,12.58
2019-04-25T13:44:38.636Z,15.25
2019-04-25T13:47:07.971Z,14.33
2019-04-25T13:49:37.441Z,16.05
2019-04-25T13:52:07.239Z,12.70
2019-04-25T13:54:36.698Z,16.02
2019-04-25T13:57:05.954Z,15.90
2019-04-25T13:59:37.553Z,14.38
2019-04-25T14:02:09.126Z,14.53
2019-04-25T14:04:38.575Z,11.22
2019-04-25T14:07:08.905Z,15.45
2019-04-25T14:09:38.383Z,13.78
2019-04-25T14:12:08.556Z,19.00
2019-04-25T14:14:37.875Z,15.83
2019-04-25T14:17:29.885Z,12.60
2019-04-25T14:20:14.374Z,15.68
2019-04-25T14:22:45.380Z,14.28
2019-04-25T14:25:15.548Z,12.18
2019-04-25T14:27:44.936Z,15.53
2019-04-25T14:30:16.214Z,13.50
2019-04-25T14:32:45.462Z,13.62
2019-04-25T14:35:14.935Z,15.00
2019-04-25T14:37:44.281Z,11.00
2019-04-25T14:40:14.183Z,15.95
2019-04-25T14:42:43.529Z,12.10
2019-04-25T14:45:13.074Z,17.62
2019-04-25T14:47:42.338Z,11.45
2019-04-25T14:50:11.965Z,17.00
2019-04-25T14:52:41.370Z,15.50
2019-04-25T14:55:27.867Z,15.43
2019-04-25T14:57:57.810Z,14.07
2019-04-25T15:00:32.957Z,13.05
2019-04-25T15:03:02.593Z,7.55
2019-04-25T15:05:34.950Z,9.83
2019-04-25T15:08:05.424Z,16.62
2019-04-25T15:10:35.571Z,10.45
2019-04-25T15:13:05.847Z,12.03
2019-04-25T15:15:35.172Z,14.87
2019-04-25T15:18:04.519Z,13.45
2019-04-25T15:20:34.442Z,48.15
2019-04-25T15:23:04.034Z,25.30
2019-04-25T15:25:33.378Z,18.48
2019-04-25T15:28:02.830Z,32.00
2019-04-25T15:30:33.966Z,43.90
2019-04-25T15:33:03.501Z,24.20
2019-04-25T15:35:45.027Z,35.17
2019-04-25T15:38:31.353Z,25.70
2019-04-25T15:41:10.626Z,41.73
2019-04-25T15:43:48.652Z,17.32
2019-04-25T15:46:23.452Z,29.87
2019-04-25T15:48:52.853Z,19.07
2019-04-25T15:51:22.190Z,16.93
2019-04-25T15:53:51.443Z,18.52
2019-04-25T15:56:21.089Z,21.40
2019-04-25T15:58:50.407Z,15.32
2019-04-25T16:01:19.788Z,13.65
2019-04-25T16:03:49.035Z,18.80
2019-04-25T16:06:18.286Z,10.82
2019-04-25T16:08:48.066Z,12.13
2019-04-25T16:11:17.326Z,18.90
2019-04-25T16:13:47.081Z,16.95
2019-04-25T16:16:16.454Z,20.10
2019-04-25T16:18:45.711Z,14.58
2019-04-25T16:21:15.178Z,15.18
2019-04-25T16:23:44.575Z,14.18
2019-04-25T16:26:14.219Z,13.58
2019-04-25T16:28:43.405Z,10.63
2019-04-25T16:31:15.457Z,15.23
2019-04-25T16:33:44.819Z,14.90
2019-04-25T16:36:14.669Z,13.65
2019-04-25T16:38:44.470Z,15.20
2019-04-25T16:41:13.825Z,13.90
2019-04-25T16:43:46.733Z,13.85
2019-04-25T16:46:17.189Z,11.80
2019-04-25T16:48:46.486Z,12.03
2019-04-25T16:51:16.455Z,12.13
2019-04-25T16:53:45.854Z,12.93
2019-04-25T16:56:15.215Z,15.05
2019-04-25T16:58:44.511Z,15.85
2019-04-25T17:01:15.143Z,15.03
2019-04-25T17:03:44.547Z,16.85
2019-04-25T17:06:13.827Z,14.38
2019-04-25T17:08:43.932Z,18.65
2019-04-25T17:11:13.893Z,15.10
2019-04-25T17:13:52.627Z,14.07
2019-04-25T17:16:43.724Z,14.85
2019-04-25T17:19:20.659Z,14.90
2019-04-25T17:21:50.110Z,16.30
2019-04-25T17:24:19.355Z,14.23
2019-04-25T17:26:48.649Z,13.32
2019-04-25T17:29:20.508Z,12.73
2019-04-25T17:31:56.848Z,17.05
2019-04-25T17:34:58.028Z,18.95
2019-04-25T17:37:36.245Z,15.68
2019-04-25T17:40:13.216Z,18.60
2019-04-25T17:42:42.586Z,22.30
2019-04-25T17:45:14.942Z,24.25
2019-04-25T17:47:54.364Z,19.48
2019-04-25T17:50:15.381Z,15.65
2019-04-25T17:52:44.711Z,15.88
2019-04-25T17:55:14.222Z,22.55
2019-04-25T17:57:44.939Z,21.07
2019-04-25T18:00:27.089Z,21.05
2019-04-25T18:02:59.053Z,18.67
2019-04-25T18:05:27.295Z,19.90
2019-04-25T18:07:56.595Z,24.60
2019-04-25T18:10:26.037Z,18.77
2019-04-25T18:12:55.282Z,20.15
2019-04-25T18:15:50.606Z,24.07
2019-04-25T18:18:54.172Z,20.72
2019-04-25T18:21:23.497Z,20.15
2019-04-25T18:24:30.474Z,20.37
2019-04-25T18:27:12.035Z,23.47
2019-04-25T18:29:41.638Z,21.52
2019-04-25T18:32:11.042Z,25.17
2019-04-25T18:34:48.908Z,21.45
2019-04-25T18:37:43.260Z,26.02
2019-04-25T18:40:20.867Z,22.50
2019-04-25T18:43:17.956Z,26.27
2019-04-25T18:45:50.481Z,20.75
2019-04-25T18:48:19.835Z,20.10
2019-04-25T18:50:49.187Z,23.47
2019-04-25T18:53:43.786Z,22.13
2019-04-25T18:56:20.772Z,21.73
2019-04-25T18:59:22.016Z,23.62
2019-04-25T19:02:27.656Z,19.52
2019-04-25T19:05:18.763Z,26.48
2019-04-25T19:07:48.808Z,21.53
2019-04-25T19:10:18.154Z,24.23
2019-04-25T19:12:47.498Z,25.50
2019-04-25T19:15:17.018Z,22.25
2019-04-25T19:17:47.349Z,21.12
2019-04-25T19:20:17.147Z,23.97
2019-04-25T19:22:46.507Z,22.43
2019-04-25T19:25:16.243Z,25.65
2019-04-25T19:27:46.472Z,19.17
2019-04-25T19:30:17.753Z,35.78
2019-04-25T19:32:47.143Z,24.90
2019-04-25T19:35:17.379Z,21.73
2019-04-25T19:37:46.715Z,21.77
2019-04-25T19:40:48.400Z,20.53
2019-04-25T19:43:22.516Z,22.30
2019-04-25T19:45:53.404Z,27.23
2019-04-25T19:48:23.236Z,23.80
2019-04-25T19:50:52.828Z,24.70
2019-04-25T19:53:22.297Z,19.87
2019-04-25T19:55:51.811Z,21.80
2019-04-25T19:58:21.309Z,25.57
2019-04-25T20:00:50.998Z,28.57
2019-04-25T20:03:29.832Z,23.90
2019-04-25T20:06:24.314Z,26.83
2019-04-25T20:09:17.286Z,27.87
2019-04-25T20:11:49.401Z,25.83
2019-04-25T20:14:19.179Z,29.43
2019-04-25T20:16:51.746Z,25.20
2019-04-25T20:19:21.359Z,27.77
2019-04-25T20:21:50.629Z,25.30
2019-04-25T20:24:20.123Z,25.80
2019-04-25T20:26:50.389Z,22.37
2019-04-25T20:29:19.786Z,27.87
2019-04-25T20:31:48.971Z,26.43
2019-04-25T20:34:19.204Z,26.13
2019-04-25T20:36:49.495Z,22.60
2019-04-25T20:39:18.994Z,23.73
2019-04-25T20:41:48.292Z,24.00
2019-04-25T20:44:17.594Z,25.33
2019-04-25T20:46:46.846Z,23.63
2019-04-25T20:49:16.466Z,19.30
2019-04-25T20:51:47.023Z,25.43
2019-04-25T20:54:16.600Z,19.20
2019-04-25T20:56:46.873Z,23.00
2019-04-25T20:59:16.783Z,19.87
2019-04-25T21:01:47.186Z,19.60
2019-04-25T21:04:34.970Z,19.80
2019-04-25T21:07:04.335Z,18.87
2019-04-25T21:09:33.604Z,17.20
2019-04-25T21:12:03.313Z,22.57
2019-04-25T21:14:51.932Z,18.07
2019-04-25T21:17:29.582Z,23.13
2019-04-25T21:19:59.759Z,21.23
2019-04-25T21:22:29.979Z,21.73
2019-04-25T21:25:00.030Z,21.37
2019-04-25T21:27:29.428Z,22.30
2019-04-25T21:29:59.734Z,25.80
2019-04-25T21:32:30.800Z,22.40
2019-04-25T21:35:01.124Z,23.63
2019-04-25T21:37:30.678Z,24.17
2019-04-25T21:40:13.819Z,19.73
2019-04-25T21:42:48.559Z,28.23
2019-04-25T21:45:18.237Z,25.37
2019-04-25T21:47:48.011Z,25.27
2019-04-25T21:50:17.649Z,23.57
2019-04-25T21:52:50.314Z,28.10
2019-04-25T21:55:19.966Z,22.27
2019-04-25T21:57:49.659Z,24.37
2019-04-25T22:00:38.847Z,27.20
2019-04-25T22:03:09.183Z,24.30
2019-04-25T22:05:38.707Z,24.37
2019-04-25T22:08:08.052Z,21.87
2019-04-25T22:10:37.335Z,21.83
2019-04-25T22:13:16.144Z,23.67
2019-04-25T22:15:37.717Z,26.03
2019-04-25T22:18:07.111Z,25.87
2019-04-25T22:20:36.352Z,24.00
2019-04-25T22:23:05.629Z,21.43
2019-04-25T22:25:36.076Z,19.83
2019-04-25T22:28:06.132Z,22.27
2019-04-25T22:30:36.459Z,22.77
2019-04-25T22:33:27.531Z,25.27
2019-04-25T22:36:00.404Z,25.10
2019-04-25T22:38:29.879Z,22.27
2019-04-25T22:40:59.200Z,17.87
2019-04-25T22:43:31.255Z,21.67
2019-04-25T22:46:01.869Z,21.10
2019-04-25T22:48:49.788Z,25.37
2019-04-25T22:51:19.441Z,24.93
2019-04-25T22:53:48.874Z,23.03
2019-04-25T22:56:18.237Z,24.37
2019-04-25T22:58:47.648Z,25.93
2019-04-25T23:01:51.451Z,21.33
2019-04-25T23:04:44.563Z,24.87
2019-04-25T23:07:14.131Z,24.43
2019-04-25T23:09:43.459Z,28.33
2019-04-25T23:12:12.923Z,36.23
2019-04-25T23:14:42.655Z,33.20
2019-04-25T23:17:11.976Z,28.97
2019-04-25T23:19:41.416Z,22.47
2019-04-25T23:22:11.534Z,23.97
2019-04-25T23:24:46.273Z,24.00
2019-04-25T23:27:37.354Z,22.10
2019-04-25T23:30:08.107Z,29.37
2019-04-25T23:32:37.841Z,24.57
2019-04-25T23:35:22.136Z,26.00
2019-04-25T23:37:38.492Z,25.23
2019-04-25T23:40:07.762Z,24.73
2019-04-25T23:42:37.083Z,23.07
2019-04-25T23:45:07.028Z,22.30
2019-04-25T23:47:37.336Z,25.67
2019-04-25T23:50:07.193Z,22.17
2019-04-25T23:52:37.264Z,24.87
2019-04-25T23:55:06.778Z,28.17
2019-04-25T23:57:37.286Z,24.10
